createdAt,value
2022-08-22T00:01:40.035Z,98848.56
2022-08-22T00:03:06.692Z,98855.88
2022-08-22T00:04:15.771Z,98844.59
2022-08-22T00:06:49.299Z,98837.66
2022-08-22T00:09:29.423Z,98851.19
2022-08-22T00:12:05.747Z,98849.28
2022-08-22T00:14:41.072Z,98846.38
2022-08-22T00:17:23.854Z,98840.00
2022-08-22T00:19:57.418Z,98846.31
2022-08-22T00:22:31.512Z,98842.06
2022-08-22T00:25:25.431Z,98833.63
2022-08-22T00:27:59.267Z,98840.22
2022-08-22T00:30:30.252Z,98840.72
2022-08-22T00:33:04.951Z,98838.91
2022-08-22T00:35:40.547Z,98839.16
2022-08-22T00:38:17.881Z,98841.25
2022-08-22T00:40:57.108Z,98839.66
2022-08-22T00:43:54.720Z,98833.88
2022-08-22T00:46:36.717Z,98834.09
2022-08-22T00:49:16.884Z,98836.69
2022-08-22T00:52:08.537Z,98844.88
2022-08-22T00:54:52.483Z,98840.41
2022-08-22T00:57:32.900Z,98842.75
2022-08-22T01:00:25.253Z,98843.22
2022-08-22T01:03:36.076Z,98851.66
2022-08-22T01:06:18.493Z,98839.50
2022-08-22T01:08:58.207Z,98833.19
2022-08-22T01:11:54.558Z,98823.59
2022-08-22T01:14:37.899Z,98833.06
2022-08-22T01:17:33.737Z,98827.00
2022-08-22T01:20:24.258Z,98826.44
2022-08-22T01:23:28.360Z,98826.19
2022-08-22T01:26:29.818Z,98831.47
2022-08-22T01:29:32.006Z,98832.44
2022-08-22T01:32:37.119Z,98823.88
2022-08-22T01:35:23.264Z,98811.59
2022-08-22T01:38:10.136Z,98830.69
2022-08-22T01:41:07.265Z,98832.69
2022-08-22T01:44:01.150Z,98834.34
2022-08-22T01:46:44.822Z,98835.88
2022-08-22T01:49:18.678Z,98837.00
2022-08-22T01:51:52.668Z,98827.22
2022-08-22T01:54:39.335Z,98832.50
2022-08-22T01:57:09.655Z,98838.75
2022-08-22T01:59:42.669Z,98842.44
2022-08-22T02:02:37.334Z,98838.47
2022-08-22T02:05:11.047Z,98839.22
2022-08-22T02:07:48.893Z,98844.16
2022-08-22T02:10:23.010Z,98836.69
2022-08-22T02:12:59.607Z,98844.66
2022-08-22T02:15:36.979Z,98846.94
2022-08-22T02:18:15.485Z,98846.13
2022-08-22T02:20:58.482Z,98843.50
2022-08-22T02:23:31.752Z,98844.50
2022-08-22T02:26:07.353Z,98840.75
2022-08-22T02:28:57.275Z,98814.19
2022-08-22T02:31:37.468Z,98844.44
2022-08-22T02:34:21.822Z,98846.53
2022-08-22T02:36:58.062Z,98840.91
2022-08-22T02:39:35.056Z,98841.09
2022-08-22T02:42:15.909Z,98834.00
2022-08-22T02:44:52.856Z,98832.88
2022-08-22T02:47:30.648Z,98839.38
2022-08-22T02:50:07.191Z,98830.56
2022-08-22T02:52:54.842Z,98832.81
2022-08-22T02:55:34.626Z,98841.75
2022-08-22T02:58:07.462Z,98838.34
2022-08-22T03:00:46.114Z,98835.63
2022-08-22T03:03:22.696Z,98838.41
2022-08-22T03:06:01.334Z,98836.34
2022-08-22T03:08:32.148Z,98824.69
2022-08-22T03:11:10.670Z,98828.44
2022-08-22T03:13:49.534Z,98828.78
2022-08-22T03:16:25.484Z,98826.59
2022-08-22T03:18:58.378Z,98825.47
2022-08-22T03:21:34.287Z,98829.72
2022-08-22T03:24:08.562Z,98817.66
2022-08-22T03:26:46.060Z,98823.53
2022-08-22T03:29:19.979Z,98818.44
2022-08-22T03:32:14.112Z,98821.31
2022-08-22T03:34:57.549Z,98828.19
2022-08-22T03:37:34.534Z,98812.22
2022-08-22T03:40:06.073Z,98822.78
2022-08-22T03:43:00.266Z,98830.44
2022-08-22T03:45:59.138Z,98830.91
2022-08-22T03:48:47.423Z,98830.13
2022-08-22T03:51:33.736Z,98820.63
2022-08-22T03:54:17.908Z,98822.16
2022-08-22T03:57:37.237Z,98825.91
2022-08-22T04:00:38.045Z,98833.81
2022-08-22T04:03:36.337Z,98817.88
2022-08-22T04:06:42.089Z,98840.16
2022-08-22T04:09:46.420Z,98835.16
2022-08-22T04:12:25.888Z,98846.00
2022-08-22T04:15:20.482Z,98835.88
2022-08-22T04:18:03.510Z,98848.81
2022-08-22T04:21:01.154Z,98858.31
2022-08-22T04:23:48.396Z,98850.16
2022-08-22T04:26:20.053Z,98845.69
2022-08-22T04:28:50.412Z,98842.19
2022-08-22T04:31:24.859Z,98860.63
2022-08-22T04:34:01.951Z,98855.84
2022-08-22T04:36:35.775Z,98855.28
2022-08-22T04:39:07.891Z,98858.91
2022-08-22T04:41:43.509Z,98854.25
2022-08-22T04:44:14.985Z,98852.44
2022-08-22T04:46:48.435Z,98864.94
2022-08-22T04:49:24.555Z,98867.50
2022-08-22T04:51:59.193Z,98865.44
2022-08-22T04:54:38.022Z,98871.03
2022-08-22T04:57:17.999Z,98867.38
2022-08-22T04:59:46.941Z,98866.88
2022-08-22T05:02:23.277Z,98870.63
2022-08-22T05:04:59.518Z,98871.66
2022-08-22T05:07:36.024Z,98871.97
2022-08-22T05:10:11.994Z,98871.31
2022-08-22T05:12:49.497Z,98871.91
2022-08-22T05:15:23.188Z,98871.31
2022-08-22T05:17:53.828Z,98882.25
2022-08-22T05:20:25.607Z,98890.00
2022-08-22T05:22:57.948Z,98881.63
2022-08-22T05:25:29.352Z,98884.41
2022-08-22T05:28:08.287Z,98877.41
2022-08-22T05:30:37.221Z,98883.00
2022-08-22T05:33:14.361Z,98888.66
2022-08-22T05:35:50.791Z,98882.63
2022-08-22T05:38:25.093Z,98876.50
2022-08-22T05:40:57.364Z,98884.78
2022-08-22T05:43:26.966Z,98885.28
2022-08-22T05:45:58.053Z,98874.44
2022-08-22T05:48:31.583Z,98889.94
2022-08-22T05:51:09.118Z,98883.19
2022-08-22T05:53:40.836Z,98886.38
2022-08-22T05:56:15.165Z,98893.88
2022-08-22T05:58:53.276Z,98880.94
2022-08-22T06:01:26.350Z,98884.16
2022-08-22T06:04:01.033Z,98884.53
2022-08-22T06:06:33.679Z,98880.78
2022-08-22T06:09:04.732Z,98890.31
2022-08-22T06:11:39.505Z,98887.47
2022-08-22T06:14:16.310Z,98889.91
2022-08-22T06:16:51.665Z,98880.78
2022-08-22T06:19:22.067Z,98885.66
2022-08-22T06:21:53.376Z,98883.66
2022-08-22T06:24:25.709Z,98886.16
2022-08-22T06:26:58.346Z,98878.56
2022-08-22T06:29:34.595Z,98885.63
2022-08-22T06:32:11.791Z,98884.38
2022-08-22T06:34:42.941Z,98886.75
2022-08-22T06:37:18.096Z,98884.50
2022-08-22T06:39:49.971Z,98877.16
2022-08-22T06:42:22.674Z,98879.34
2022-08-22T06:44:54.656Z,98878.63
2022-08-22T06:47:27.406Z,98880.19
2022-08-22T06:50:04.947Z,98883.97
2022-08-22T06:52:39.651Z,98870.28
2022-08-22T06:55:10.446Z,98871.13
2022-08-22T06:57:45.079Z,98874.38
2022-08-22T07:00:16.898Z,98867.56
2022-08-22T07:02:48.256Z,98877.94
2022-08-22T07:05:20.044Z,98877.97
2022-08-22T07:07:50.551Z,98881.75
2022-08-22T07:10:20.019Z,98886.50
2022-08-22T07:12:51.394Z,98880.72
2022-08-22T07:15:24.251Z,98885.75
2022-08-22T07:17:59.165Z,98890.56
2022-08-22T07:20:29.621Z,98882.41
2022-08-22T07:23:02.015Z,98880.28
2022-08-22T07:25:31.689Z,98873.38
2022-08-22T07:28:21.558Z,98874.34
2022-08-22T07:31:12.179Z,98874.25
2022-08-22T07:33:45.127Z,98870.88
2022-08-22T07:36:36.962Z,98876.09
2022-08-22T07:39:26.256Z,98878.59
2022-08-22T07:42:10.004Z,98874.13
2022-08-22T07:44:50.875Z,98863.38
2022-08-22T07:47:26.367Z,98875.16
2022-08-22T07:49:59.268Z,98868.88
2022-08-22T07:52:33.734Z,98871.88
2022-08-22T07:55:13.042Z,98880.72
2022-08-22T07:57:45.034Z,98870.66
2022-08-22T08:00:17.554Z,98878.00
2022-08-22T08:02:47.996Z,98872.63
2022-08-22T08:05:17.467Z,98871.59
2022-08-22T08:07:47.918Z,98873.44
2022-08-22T08:10:20.508Z,98858.94
2022-08-22T08:13:02.163Z,98872.13
2022-08-22T08:15:34.306Z,98867.53
2022-08-22T08:18:12.981Z,98878.03
2022-08-22T08:20:41.951Z,98880.59
2022-08-22T08:23:11.943Z,98877.22
2022-08-22T08:25:54.948Z,98870.59
2022-08-22T08:28:34.935Z,98881.66
2022-08-22T08:31:08.867Z,98878.94
2022-08-22T08:33:41.127Z,98884.81
2022-08-22T08:36:20.024Z,98888.81
2022-08-22T08:38:52.931Z,98874.34
2022-08-22T08:41:52.002Z,98874.75
2022-08-22T08:44:37.218Z,98879.47
2022-08-22T08:47:24.456Z,98861.38
2022-08-22T08:50:16.074Z,98859.97
2022-08-22T08:53:11.617Z,98858.06
2022-08-22T08:55:47.480Z,98862.16
2022-08-22T08:58:30.141Z,98857.25
2022-08-22T09:01:07.205Z,98852.78
2022-08-22T09:03:59.856Z,98848.72
2022-08-22T09:06:52.841Z,98849.06
2022-08-22T09:09:41.087Z,98847.69
2022-08-22T09:12:34.670Z,98845.38
2022-08-22T09:15:42.413Z,98843.50
2022-08-22T09:18:49.763Z,98841.44
2022-08-22T09:21:30.723Z,98847.28
2022-08-22T09:24:32.968Z,98845.59
2022-08-22T09:27:03.966Z,98842.59
2022-08-22T09:32:44.478Z,98846.09
2022-08-22T09:35:23.553Z,98840.88
2022-08-22T09:38:03.561Z,98831.00
2022-08-22T09:40:39.098Z,98834.78
2022-08-22T09:43:12.300Z,98835.53
2022-08-22T09:45:47.923Z,98836.81
2022-08-22T09:48:34.546Z,98840.53
2022-08-22T09:51:31.691Z,98835.81
2022-08-22T09:54:31.023Z,98844.91
2022-08-22T09:57:07.703Z,98831.34
2022-08-22T10:00:02.061Z,98839.94
2022-08-22T10:02:36.362Z,98832.00
2022-08-22T10:05:13.639Z,98836.84
2022-08-22T10:08:29.212Z,98840.97
2022-08-22T10:11:11.283Z,98839.31
2022-08-22T10:13:57.400Z,98837.66
2022-08-22T10:17:00.225Z,98838.91
2022-08-22T10:19:33.779Z,98834.34
2022-08-22T10:22:20.988Z,98834.69
2022-08-22T10:25:07.461Z,98826.47
2022-08-22T10:27:48.784Z,98832.13
2022-08-22T10:30:20.212Z,98826.16
2022-08-22T10:32:53.789Z,98824.50
2022-08-22T10:35:27.995Z,98823.06
2022-08-22T10:38:10.590Z,98819.78
2022-08-22T10:40:44.997Z,98809.97
2022-08-22T10:43:21.064Z,98810.47
2022-08-22T10:46:04.599Z,98807.47
2022-08-22T10:48:44.128Z,98811.84
2022-08-22T10:51:19.484Z,98812.16
2022-08-22T10:54:14.649Z,98804.47
2022-08-22T10:56:55.746Z,98800.31
2022-08-22T10:59:34.597Z,98799.00
2022-08-22T11:02:18.141Z,98788.00
2022-08-22T11:05:13.999Z,98779.81
2022-08-22T11:07:48.654Z,98779.03
2022-08-22T11:10:25.125Z,98781.97
2022-08-22T11:13:12.661Z,98770.28
2022-08-22T11:15:58.173Z,98776.47
2022-08-22T11:18:37.157Z,98773.78
2022-08-22T11:21:09.368Z,98772.66
2022-08-22T11:23:43.114Z,98767.38
2022-08-22T11:26:35.792Z,98765.69
2022-08-22T11:29:35.495Z,98755.63
2022-08-22T11:32:13.405Z,98761.53
2022-08-22T11:34:50.962Z,98769.06
2022-08-22T11:37:42.593Z,98761.31
2022-08-22T11:40:37.624Z,98756.50
2022-08-22T11:43:18.132Z,98753.22
2022-08-22T11:45:50.766Z,98744.44
2022-08-22T11:48:24.439Z,98756.97
2022-08-22T11:50:57.933Z,98750.25
2022-08-22T11:53:34.076Z,98752.03
2022-08-22T11:56:13.785Z,98752.59
2022-08-22T11:58:50.227Z,98742.50
2022-08-22T12:01:23.996Z,98754.59
2022-08-22T12:04:00.603Z,98737.09
2022-08-22T12:06:57.942Z,98741.91
2022-08-22T12:09:40.903Z,98745.66
2022-08-22T12:12:25.825Z,98741.63
2022-08-22T12:14:59.305Z,98739.13
2022-08-22T12:18:11.726Z,98739.38
2022-08-22T12:21:11.284Z,98729.38
2022-08-22T12:24:21.008Z,98723.69
2022-08-22T12:27:00.234Z,98730.84
2022-08-22T12:29:44.671Z,98727.63
2022-08-22T12:32:34.762Z,98721.97
2022-08-22T12:35:19.299Z,98730.28
2022-08-22T12:37:53.445Z,98722.03
2022-08-22T12:40:29.645Z,98720.41
2022-08-22T12:43:29.779Z,98715.19
2022-08-22T12:46:15.730Z,98705.84
2022-08-22T12:49:12.395Z,98709.91
2022-08-22T12:51:56.427Z,98703.22
2022-08-22T12:54:52.302Z,98712.06
2022-08-22T12:57:31.269Z,98700.13
2022-08-22T13:00:18.113Z,98694.28
2022-08-22T13:02:53.459Z,98693.28
2022-08-22T13:05:25.089Z,98698.09
2022-08-22T13:07:57.192Z,98701.66
2022-08-22T13:10:38.297Z,98698.22
2022-08-22T13:13:12.125Z,98691.97
2022-08-22T13:15:45.221Z,98703.81
2022-08-22T13:18:29.384Z,98696.38
2022-08-22T13:21:01.852Z,98692.38
2022-08-22T13:23:39.981Z,98698.88
2022-08-22T13:26:33.718Z,98693.00
2022-08-22T13:29:26.473Z,98686.44
2022-08-22T13:32:00.304Z,98684.06
2022-08-22T13:34:39.980Z,98689.19
2022-08-22T13:37:15.468Z,98686.22
2022-08-22T13:39:47.120Z,98686.69
2022-08-22T13:42:29.926Z,98684.16
2022-08-22T13:45:03.117Z,98677.06
2022-08-22T13:47:39.598Z,98675.78
2022-08-22T13:50:13.959Z,98674.25
2022-08-22T13:52:52.498Z,98672.41
2022-08-22T13:55:29.492Z,98682.91
2022-08-22T13:58:07.758Z,98677.56
2022-08-22T14:01:10.970Z,98677.78
2022-08-22T14:03:45.419Z,98679.16
2022-08-22T14:06:41.411Z,98677.78
2022-08-22T14:09:31.319Z,98676.31
2022-08-22T14:12:11.992Z,98654.28
2022-08-22T14:14:45.859Z,98673.75
2022-08-22T14:17:17.433Z,98666.34
2022-08-22T14:19:52.939Z,98660.84
2022-08-22T14:22:34.815Z,98661.44
2022-08-22T14:25:07.511Z,98656.16
2022-08-22T14:27:39.742Z,98663.69
2022-08-22T14:30:18.911Z,98653.47
2022-08-22T14:32:51.119Z,98657.38
2022-08-22T14:35:35.175Z,98651.34
2022-08-22T14:38:18.242Z,98657.66
2022-08-22T14:40:48.655Z,98648.78
2022-08-22T14:43:22.448Z,98656.06
2022-08-22T14:46:02.223Z,98655.31
2022-08-22T14:48:40.551Z,98652.84
2022-08-22T14:51:11.853Z,98650.66
2022-08-22T14:53:41.475Z,98650.19
2022-08-22T14:56:12.672Z,98655.59
2022-08-22T14:58:50.650Z,98645.16
2022-08-22T15:01:25.045Z,98653.56
2022-08-22T15:03:56.331Z,98650.06
2022-08-22T15:06:35.141Z,98645.84
2022-08-22T15:09:08.333Z,98646.19
2022-08-22T15:11:37.839Z,98644.69
2022-08-22T15:14:16.002Z,98647.72
2022-08-22T15:16:52.950Z,98641.16
2022-08-22T15:19:27.235Z,98635.66
2022-08-22T15:22:09.977Z,98635.00
2022-08-22T15:24:46.467Z,98641.91
2022-08-22T15:27:18.830Z,98631.41
2022-08-22T15:29:53.061Z,98627.13
2022-08-22T15:32:26.718Z,98637.09
2022-08-22T15:35:04.910Z,98644.16
2022-08-22T15:37:35.500Z,98635.81
2022-08-22T15:40:12.648Z,98631.28
2022-08-22T15:42:44.010Z,98620.31
2022-08-22T15:45:22.722Z,98633.06
2022-08-22T15:47:54.653Z,98628.03
2022-08-22T15:50:32.250Z,98619.41
2022-08-22T15:53:18.012Z,98608.91
2022-08-22T15:56:29.004Z,98628.59
2022-08-22T15:59:24.410Z,98623.41
2022-08-22T16:01:58.794Z,98616.91
2022-08-22T16:04:40.468Z,98618.00
2022-08-22T16:07:26.885Z,98619.13
2022-08-22T16:09:58.009Z,98609.84
2022-08-22T16:12:32.829Z,98618.34
2022-08-22T16:15:05.234Z,98616.75
2022-08-22T16:17:44.246Z,98603.00
2022-08-22T16:20:54.010Z,98620.34
2022-08-22T16:23:22.973Z,98619.09
2022-08-22T16:26:12.885Z,98611.34
2022-08-22T16:28:59.004Z,98614.22
2022-08-22T16:31:30.868Z,98624.16
2022-08-22T16:34:20.387Z,98620.25
2022-08-22T16:36:53.893Z,98605.22
2022-08-22T16:39:35.585Z,98621.41
2022-08-22T16:42:26.666Z,98615.81
2022-08-22T16:45:11.163Z,98615.13
2022-08-22T16:47:43.065Z,98616.47
2022-08-22T16:50:28.576Z,98616.47
2022-08-22T16:53:03.180Z,98614.75
2022-08-22T16:55:56.431Z,98608.47
2022-08-22T16:59:09.848Z,98617.44
2022-08-22T17:02:03.018Z,98616.72
2022-08-22T17:04:40.365Z,98621.75
2022-08-22T17:07:18.808Z,98617.03
2022-08-22T17:10:12.631Z,98622.06
2022-08-22T17:12:54.117Z,98625.56
2022-08-22T17:15:32.727Z,98623.38
2022-08-22T17:18:15.978Z,98621.69
2022-08-22T17:20:48.564Z,98629.59
2022-08-22T17:23:26.722Z,98633.56
2022-08-22T17:26:01.797Z,98632.13
2022-08-22T17:28:37.100Z,98628.41
2022-08-22T17:31:12.076Z,98630.16
2022-08-22T17:34:07.159Z,98633.50
2022-08-22T17:36:54.069Z,98634.16
2022-08-22T17:39:33.668Z,98640.00
2022-08-22T17:42:29.396Z,98638.75
2022-08-22T17:45:07.302Z,98627.78
2022-08-22T17:47:46.669Z,98649.16
2022-08-22T17:50:22.907Z,98652.03
2022-08-22T17:52:57.784Z,98651.13
2022-08-22T17:55:31.847Z,98652.22
2022-08-22T17:58:37.682Z,98661.84
2022-08-22T18:01:13.719Z,98652.59
2022-08-22T18:03:47.711Z,98660.13
2022-08-22T18:06:23.246Z,98656.38
2022-08-22T18:11:49.576Z,98661.28
2022-08-22T18:14:33.871Z,98664.28
2022-08-22T18:17:15.031Z,98667.25
2022-08-22T18:19:53.135Z,98674.06
2022-08-22T18:22:25.970Z,98678.72
2022-08-22T18:24:58.901Z,98681.56
2022-08-22T18:27:35.396Z,98684.69
2022-08-22T18:30:16.474Z,98683.41
2022-08-22T18:32:50.980Z,98685.75
2022-08-22T18:35:23.850Z,98687.63
2022-08-22T18:37:59.212Z,98689.34
2022-08-22T18:40:33.005Z,98689.47
2022-08-22T18:43:13.986Z,98700.16
2022-08-22T18:46:04.150Z,98699.63
2022-08-22T18:48:54.239Z,98702.72
2022-08-22T18:51:30.437Z,98701.56
2022-08-22T18:54:17.837Z,98706.44
2022-08-22T18:56:51.666Z,98713.81
2022-08-22T18:59:42.546Z,98713.16
2022-08-22T19:02:28.251Z,98716.50
2022-08-22T19:05:40.967Z,98715.22
2022-08-22T19:08:31.354Z,98716.47
2022-08-22T19:11:15.608Z,98728.47
2022-08-22T19:13:53.211Z,98728.00
2022-08-22T19:16:45.313Z,98734.06
2022-08-22T19:19:18.638Z,98744.84
2022-08-22T19:22:21.744Z,98742.31
2022-08-22T19:25:26.195Z,98743.84
2022-08-22T19:28:26.691Z,98752.97
2022-08-22T19:31:22.392Z,98750.41
2022-08-22T19:33:52.353Z,98755.84
2022-08-22T19:36:34.456Z,98751.44
2022-08-22T19:39:09.012Z,98749.19
2022-08-22T19:41:40.591Z,98746.72
2022-08-22T19:44:22.157Z,98748.19
2022-08-22T19:47:14.852Z,98753.06
2022-08-22T19:50:05.722Z,98754.41
2022-08-22T19:52:48.180Z,98758.91
2022-08-22T19:55:22.691Z,98761.03
2022-08-22T19:57:58.598Z,98757.88
2022-08-22T20:00:47.545Z,98759.81
2022-08-22T20:03:31.031Z,98758.94
2022-08-22T20:06:05.920Z,98763.56
2022-08-22T20:08:48.457Z,98759.72
2022-08-22T20:11:27.244Z,98757.53
2022-08-22T20:14:12.057Z,98757.25
2022-08-22T20:17:04.322Z,98764.25
2022-08-22T20:20:16.558Z,98753.97
2022-08-22T20:22:38.691Z,98768.66
2022-08-22T20:25:16.270Z,98758.81
2022-08-22T20:28:05.357Z,98761.97
2022-08-22T20:30:40.375Z,98768.94
2022-08-22T20:33:13.874Z,98765.78
2022-08-22T20:35:45.223Z,98765.94
2022-08-22T20:38:17.610Z,98765.72
2022-08-22T20:40:55.543Z,98779.34
2022-08-22T20:43:29.907Z,98779.34
2022-08-22T20:46:05.520Z,98783.47
2022-08-22T20:48:39.256Z,98787.56
2022-08-22T20:51:10.139Z,98792.72
2022-08-22T20:53:38.940Z,98786.91
2022-08-22T20:56:10.532Z,98794.66
2022-08-22T20:58:46.949Z,98791.28
2022-08-22T21:01:16.403Z,98788.19
2022-08-22T21:03:46.721Z,98791.16
2022-08-22T21:06:17.674Z,98788.97
2022-08-22T21:09:07.935Z,98787.53
2022-08-22T21:11:40.207Z,98788.84
2022-08-22T21:14:23.088Z,98784.16
2022-08-22T21:16:53.656Z,98791.16
2022-08-22T21:19:26.414Z,98785.34
2022-08-22T21:21:56.393Z,98794.19
2022-08-22T21:24:25.192Z,98805.63
2022-08-22T21:26:57.941Z,98798.00
2022-08-22T21:29:33.960Z,98800.66
2022-08-22T21:32:12.492Z,98800.75
2022-08-22T21:34:45.009Z,98796.22
2022-08-22T21:37:16.536Z,98801.56
2022-08-22T21:39:47.479Z,98797.34
2022-08-22T21:42:24.797Z,98807.19
2022-08-22T21:44:57.950Z,98812.28
2022-08-22T21:47:31.606Z,98807.00
2022-08-22T21:50:04.577Z,98807.75
2022-08-22T21:52:34.865Z,98803.78
2022-08-22T21:55:25.438Z,98822.44
2022-08-22T21:58:13.120Z,98820.13
2022-08-22T22:01:03.975Z,98813.75
2022-08-22T22:03:37.867Z,98817.97
2022-08-22T22:06:07.485Z,98827.31
2022-08-22T22:08:36.296Z,98823.09
2022-08-22T22:11:09.022Z,98824.22
2022-08-22T22:13:41.167Z,98824.78
2022-08-22T22:16:12.044Z,98827.72
2022-08-22T22:18:41.550Z,98827.53
2022-08-22T22:21:10.380Z,98835.56
2022-08-22T22:23:39.369Z,98834.78
2022-08-22T22:26:08.072Z,98833.75
2022-08-22T22:28:41.469Z,98840.19
2022-08-22T22:31:10.824Z,98835.94
2022-08-22T22:33:41.139Z,98840.50
2022-08-22T22:36:12.691Z,98838.09
2022-08-22T22:38:42.214Z,98841.53
2022-08-22T22:41:11.314Z,98837.84
2022-08-22T22:43:41.608Z,98841.09
2022-08-22T22:46:10.366Z,98836.88
2022-08-22T22:48:39.082Z,98843.78
2022-08-22T22:51:09.498Z,98850.97
2022-08-22T22:53:40.347Z,98848.88
2022-08-22T22:56:15.771Z,98851.84
2022-08-22T22:58:47.503Z,98848.91
2022-08-22T23:01:18.678Z,98855.03
2022-08-22T23:03:48.305Z,98853.72
2022-08-22T23:06:19.462Z,98857.19
2022-08-22T23:08:49.349Z,98855.06
2022-08-22T23:11:19.937Z,98864.06
2022-08-22T23:13:50.594Z,98869.41
2022-08-22T23:16:21.584Z,98859.09
2022-08-22T23:18:50.747Z,98871.56
2022-08-22T23:21:22.217Z,98873.19
2022-08-22T23:23:52.247Z,98871.13
2022-08-22T23:26:21.029Z,98871.38
2022-08-22T23:28:51.266Z,98884.06
2022-08-22T23:31:29.138Z,98880.13
2022-08-22T23:34:01.166Z,98884.38
2022-08-22T23:36:30.572Z,98873.81
2022-08-22T23:38:59.373Z,98878.03
2022-08-22T23:41:28.226Z,98888.13
2022-08-22T23:43:58.414Z,98886.78
2022-08-22T23:46:31.252Z,98886.81
2022-08-22T23:49:00.584Z,98886.56
2022-08-22T23:51:29.776Z,98879.19
2022-08-22T23:53:59.678Z,98887.13
2022-08-22T23:56:30.493Z,98880.78
2022-08-22T23:59:01.614Z,98885.28
